sensor_id;sensor_type;location;lat;lon;timestamp;P1;durP1;ratioP1;P2;durP2;ratioP2
83715;SDS011;73698;51.138;6.950;2023-11-19T00:01:16;2.42;;;1.60;;
83715;SDS011;73698;51.138;6.950;2023-11-19T00:04:04;4.10;;;2.00;;
83715;SDS011;73698;51.138;6.950;2023-11-19T00:06:31;3.13;;;1.63;;
83715;SDS011;73698;51.138;6.950;2023-11-19T00:08:56;2.08;;;1.90;;
83715;SDS011;73698;51.138;6.950;2023-11-19T00:11:23;2.60;;;1.80;;
83715;SDS011;73698;51.138;6.950;2023-11-19T00:13:49;3.10;;;1.70;;
83715;SDS011;73698;51.138;6.950;2023-11-19T00:19:50;2.33;;;1.70;;
83715;SDS011;73698;51.138;6.950;2023-11-19T00:22:16;2.65;;;1.85;;
83715;SDS011;73698;51.138;6.950;2023-11-19T00:30:40;2.92;;;1.52;;
83715;SDS011;73698;51.138;6.950;2023-11-19T00:33:08;2.40;;;1.80;;
83715;SDS011;73698;51.138;6.950;2023-11-19T00:35:34;5.03;;;2.30;;
83715;SDS011;73698;51.138;6.950;2023-11-19T00:37:59;1.65;;;1.52;;
83715;SDS011;73698;51.138;6.950;2023-11-19T00:40:25;3.65;;;2.05;;
83715;SDS011;73698;51.138;6.950;2023-11-19T00:42:50;2.15;;;1.58;;
83715;SDS011;73698;51.138;6.950;2023-11-19T00:45:16;3.88;;;2.00;;
83715;SDS011;73698;51.138;6.950;2023-11-19T00:47:42;2.00;;;1.60;;
83715;SDS011;73698;51.138;6.950;2023-11-19T00:50:08;2.53;;;1.90;;
83715;SDS011;73698;51.138;6.950;2023-11-19T00:52:37;3.92;;;1.85;;
83715;SDS011;73698;51.138;6.950;2023-11-19T00:55:03;3.25;;;2.28;;
83715;SDS011;73698;51.138;6.950;2023-11-19T00:57:32;2.22;;;1.92;;
83715;SDS011;73698;51.138;6.950;2023-11-19T00:59:58;3.10;;;2.30;;
83715;SDS011;73698;51.138;6.950;2023-11-19T01:02:24;5.38;;;2.20;;
83715;SDS011;73698;51.138;6.950;2023-11-19T01:04:50;3.63;;;2.10;;
83715;SDS011;73698;51.138;6.950;2023-11-19T01:07:16;4.18;;;2.28;;
83715;SDS011;73698;51.138;6.950;2023-11-19T01:09:43;2.55;;;2.10;;
83715;SDS011;73698;51.138;6.950;2023-11-19T01:12:09;3.10;;;2.22;;
83715;SDS011;73698;51.138;6.950;2023-11-19T01:14:35;3.28;;;2.10;;
83715;SDS011;73698;51.138;6.950;2023-11-19T01:17:01;7.00;;;2.97;;
83715;SDS011;73698;51.138;6.950;2023-11-19T01:19:26;3.95;;;2.20;;
83715;SDS011;73698;51.138;6.950;2023-11-19T01:21:53;4.05;;;2.45;;
83715;SDS011;73698;51.138;6.950;2023-11-19T01:24:19;2.63;;;1.83;;
83715;SDS011;73698;51.138;6.950;2023-11-19T01:26:45;3.00;;;2.00;;
83715;SDS011;73698;51.138;6.950;2023-11-19T01:29:11;2.78;;;2.10;;
83715;SDS011;73698;51.138;6.950;2023-11-19T01:31:43;2.25;;;1.85;;
83715;SDS011;73698;51.138;6.950;2023-11-19T01:34:10;2.13;;;1.60;;
83715;SDS011;73698;51.138;6.950;2023-11-19T01:36:36;1.50;;;1.40;;
83715;SDS011;73698;51.138;6.950;2023-11-19T01:39:02;3.55;;;1.50;;
83715;SDS011;73698;51.138;6.950;2023-11-19T01:41:29;2.20;;;1.77;;
83715;SDS011;73698;51.138;6.950;2023-11-19T01:43:59;2.28;;;1.80;;
83715;SDS011;73698;51.138;6.950;2023-11-19T01:46:24;2.38;;;1.83;;
83715;SDS011;73698;51.138;6.950;2023-11-19T01:48:50;2.60;;;1.55;;
83715;SDS011;73698;51.138;6.950;2023-11-19T01:51:16;2.83;;;1.65;;
83715;SDS011;73698;51.138;6.950;2023-11-19T01:53:42;1.17;;;1.00;;
83715;SDS011;73698;51.138;6.950;2023-11-19T01:56:09;1.17;;;0.90;;
83715;SDS011;73698;51.138;6.950;2023-11-19T01:58:37;1.60;;;1.00;;
83715;SDS011;73698;51.138;6.950;2023-11-19T02:01:04;0.65;;;0.65;;
83715;SDS011;73698;51.138;6.950;2023-11-19T02:03:32;1.30;;;0.77;;
83715;SDS011;73698;51.138;6.950;2023-11-19T02:05:58;2.55;;;1.02;;
83715;SDS011;73698;51.138;6.950;2023-11-19T02:08:24;2.92;;;1.02;;
83715;SDS011;73698;51.138;6.950;2023-11-19T02:10:51;3.45;;;1.05;;
83715;SDS011;73698;51.138;6.950;2023-11-19T02:13:17;4.57;;;1.35;;
83715;SDS011;73698;51.138;6.950;2023-11-19T02:15:43;1.52;;;1.08;;
83715;SDS011;73698;51.138;6.950;2023-11-19T02:20:47;5.82;;;1.33;;
83715;SDS011;73698;51.138;6.950;2023-11-19T02:23:14;4.10;;;1.20;;
83715;SDS011;73698;51.138;6.950;2023-11-19T02:25:40;5.32;;;1.30;;
83715;SDS011;73698;51.138;6.950;2023-11-19T02:28:06;4.18;;;1.50;;
83715;SDS011;73698;51.138;6.950;2023-11-19T02:30:32;6.15;;;1.40;;
83715;SDS011;73698;51.138;6.950;2023-11-19T02:32:58;3.45;;;1.42;;
83715;SDS011;73698;51.138;6.950;2023-11-19T02:35:26;4.80;;;1.30;;
83715;SDS011;73698;51.138;6.950;2023-11-19T02:37:52;10.48;;;2.35;;
83715;SDS011;73698;51.138;6.950;2023-11-19T02:40:19;5.43;;;1.70;;
83715;SDS011;73698;51.138;6.950;2023-11-19T02:42:44;8.55;;;1.83;;
83715;SDS011;73698;51.138;6.950;2023-11-19T02:45:09;5.35;;;1.35;;
83715;SDS011;73698;51.138;6.950;2023-11-19T02:47:42;4.95;;;1.45;;
83715;SDS011;73698;51.138;6.950;2023-11-19T02:50:11;4.47;;;1.65;;
83715;SDS011;73698;51.138;6.950;2023-11-19T02:52:46;6.03;;;1.67;;
83715;SDS011;73698;51.138;6.950;2023-11-19T02:55:11;5.93;;;1.90;;
83715;SDS011;73698;51.138;6.950;2023-11-19T02:57:41;6.03;;;1.70;;
83715;SDS011;73698;51.138;6.950;2023-11-19T03:02:42;4.22;;;1.70;;
83715;SDS011;73698;51.138;6.950;2023-11-19T03:05:13;7.68;;;2.15;;
83715;SDS011;73698;51.138;6.950;2023-11-19T03:07:43;6.50;;;1.85;;
83715;SDS011;73698;51.138;6.950;2023-11-19T03:10:09;7.93;;;2.00;;
83715;SDS011;73698;51.138;6.950;2023-11-19T03:12:39;5.53;;;1.70;;
83715;SDS011;73698;51.138;6.950;2023-11-19T03:15:05;3.47;;;1.60;;
83715;SDS011;73698;51.138;6.950;2023-11-19T03:17:32;9.10;;;2.25;;
83715;SDS011;73698;51.138;6.950;2023-11-19T03:19:57;9.18;;;2.28;;
83715;SDS011;73698;51.138;6.950;2023-11-19T03:22:23;9.90;;;2.10;;
83715;SDS011;73698;51.138;6.950;2023-11-19T03:24:50;7.80;;;2.30;;
83715;SDS011;73698;51.138;6.950;2023-11-19T03:27:16;4.15;;;2.00;;
83715;SDS011;73698;51.138;6.950;2023-11-19T03:29:42;6.13;;;2.38;;
83715;SDS011;73698;51.138;6.950;2023-11-19T03:32:07;10.13;;;2.17;;
83715;SDS011;73698;51.138;6.950;2023-11-19T03:34:32;6.65;;;2.15;;
83715;SDS011;73698;51.138;6.950;2023-11-19T03:36:58;11.27;;;2.05;;
83715;SDS011;73698;51.138;6.950;2023-11-19T03:39:23;5.75;;;1.73;;
83715;SDS011;73698;51.138;6.950;2023-11-19T03:41:50;7.53;;;2.55;;
83715;SDS011;73698;51.138;6.950;2023-11-19T03:44:15;12.18;;;1.83;;
83715;SDS011;73698;51.138;6.950;2023-11-19T03:46:41;12.20;;;2.60;;
83715;SDS011;73698;51.138;6.950;2023-11-19T03:49:07;5.82;;;1.63;;
83715;SDS011;73698;51.138;6.950;2023-11-19T03:51:32;11.15;;;2.33;;
83715;SDS011;73698;51.138;6.950;2023-11-19T03:54:00;11.00;;;1.92;;
83715;SDS011;73698;51.138;6.950;2023-11-19T03:56:26;3.58;;;1.42;;
83715;SDS011;73698;51.138;6.950;2023-11-19T03:58:52;8.15;;;2.08;;
83715;SDS011;73698;51.138;6.950;2023-11-19T04:01:17;15.57;;;2.85;;
83715;SDS011;73698;51.138;6.950;2023-11-19T04:03:43;18.08;;;2.33;;
83715;SDS011;73698;51.138;6.950;2023-11-19T04:06:09;16.67;;;2.35;;
83715;SDS011;73698;51.138;6.950;2023-11-19T04:08:35;9.50;;;1.88;;
83715;SDS011;73698;51.138;6.950;2023-11-19T04:11:01;12.27;;;2.00;;
83715;SDS011;73698;51.138;6.950;2023-11-19T04:13:28;12.27;;;3.22;;
83715;SDS011;73698;51.138;6.950;2023-11-19T04:15:53;10.52;;;2.65;;
83715;SDS011;73698;51.138;6.950;2023-11-19T04:18:19;10.63;;;2.42;;
83715;SDS011;73698;51.138;6.950;2023-11-19T04:20:44;11.82;;;2.35;;
83715;SDS011;73698;51.138;6.950;2023-11-19T04:23:10;11.98;;;2.03;;
83715;SDS011;73698;51.138;6.950;2023-11-19T04:25:36;10.60;;;2.65;;
83715;SDS011;73698;51.138;6.950;2023-11-19T04:28:01;8.48;;;2.40;;
83715;SDS011;73698;51.138;6.950;2023-11-19T04:30:27;10.40;;;2.30;;
83715;SDS011;73698;51.138;6.950;2023-11-19T04:32:53;11.50;;;2.38;;
83715;SDS011;73698;51.138;6.950;2023-11-19T04:35:18;15.27;;;2.60;;
83715;SDS011;73698;51.138;6.950;2023-11-19T04:37:44;12.77;;;2.67;;
83715;SDS011;73698;51.138;6.950;2023-11-19T04:40:10;13.90;;;2.90;;
83715;SDS011;73698;51.138;6.950;2023-11-19T04:42:37;14.45;;;3.50;;
83715;SDS011;73698;51.138;6.950;2023-11-19T04:45:05;9.68;;;2.72;;
83715;SDS011;73698;51.138;6.950;2023-11-19T04:47:32;10.23;;;2.42;;
83715;SDS011;73698;51.138;6.950;2023-11-19T04:49:58;9.60;;;2.25;;
83715;SDS011;73698;51.138;6.950;2023-11-19T04:52:24;9.68;;;2.80;;
83715;SDS011;73698;51.138;6.950;2023-11-19T04:54:49;13.20;;;3.10;;
83715;SDS011;73698;51.138;6.950;2023-11-19T04:57:15;8.43;;;2.53;;
83715;SDS011;73698;51.138;6.950;2023-11-19T04:59:40;9.95;;;3.20;;
83715;SDS011;73698;51.138;6.950;2023-11-19T05:02:06;14.88;;;2.38;;
83715;SDS011;73698;51.138;6.950;2023-11-19T05:04:33;15.52;;;2.70;;
83715;SDS011;73698;51.138;6.950;2023-11-19T05:07:00;12.32;;;2.85;;
83715;SDS011;73698;51.138;6.950;2023-11-19T05:09:25;19.10;;;2.88;;
83715;SDS011;73698;51.138;6.950;2023-11-19T05:11:51;16.38;;;2.85;;
83715;SDS011;73698;51.138;6.950;2023-11-19T05:14:16;9.82;;;2.00;;
83715;SDS011;73698;51.138;6.950;2023-11-19T05:16:43;12.98;;;3.38;;
83715;SDS011;73698;51.138;6.950;2023-11-19T05:19:09;14.80;;;2.28;;
83715;SDS011;73698;51.138;6.950;2023-11-19T05:21:34;11.48;;;3.55;;
83715;SDS011;73698;51.138;6.950;2023-11-19T05:24:01;18.92;;;4.45;;
83715;SDS011;73698;51.138;6.950;2023-11-19T05:26:32;11.38;;;2.72;;
83715;SDS011;73698;51.138;6.950;2023-11-19T05:28:57;16.23;;;3.63;;
83715;SDS011;73698;51.138;6.950;2023-11-19T05:31:22;14.40;;;2.47;;
83715;SDS011;73698;51.138;6.950;2023-11-19T05:33:48;9.45;;;2.15;;
83715;SDS011;73698;51.138;6.950;2023-11-19T05:36:13;15.70;;;2.88;;
83715;SDS011;73698;51.138;6.950;2023-11-19T05:38:39;12.98;;;3.22;;
83715;SDS011;73698;51.138;6.950;2023-11-19T05:41:05;20.70;;;2.42;;
83715;SDS011;73698;51.138;6.950;2023-11-19T05:43:31;13.00;;;2.50;;
83715;SDS011;73698;51.138;6.950;2023-11-19T05:45:57;11.07;;;2.60;;
83715;SDS011;73698;51.138;6.950;2023-11-19T05:48:22;17.77;;;2.47;;
83715;SDS011;73698;51.138;6.950;2023-11-19T05:50:48;13.43;;;2.50;;
83715;SDS011;73698;51.138;6.950;2023-11-19T05:53:15;8.93;;;2.20;;
83715;SDS011;73698;51.138;6.950;2023-11-19T05:55:41;15.02;;;4.22;;
83715;SDS011;73698;51.138;6.950;2023-11-19T06:00:49;7.43;;;2.00;;
83715;SDS011;73698;51.138;6.950;2023-11-19T06:03:15;9.95;;;1.80;;
83715;SDS011;73698;51.138;6.950;2023-11-19T06:05:41;14.68;;;2.80;;
83715;SDS011;73698;51.138;6.950;2023-11-19T06:08:06;10.50;;;2.45;;
83715;SDS011;73698;51.138;6.950;2023-11-19T06:10:32;18.40;;;2.45;;
83715;SDS011;73698;51.138;6.950;2023-11-19T06:12:58;14.13;;;3.08;;
83715;SDS011;73698;51.138;6.950;2023-11-19T06:15:27;15.25;;;3.25;;
83715;SDS011;73698;51.138;6.950;2023-11-19T06:17:53;18.95;;;3.08;;
83715;SDS011;73698;51.138;6.950;2023-11-19T06:20:20;18.85;;;3.03;;
83715;SDS011;73698;51.138;6.950;2023-11-19T06:22:45;14.30;;;2.13;;
83715;SDS011;73698;51.138;6.950;2023-11-19T06:25:11;17.10;;;3.17;;
83715;SDS011;73698;51.138;6.950;2023-11-19T06:27:39;18.20;;;2.97;;
83715;SDS011;73698;51.138;6.950;2023-11-19T06:30:08;20.05;;;2.72;;
83715;SDS011;73698;51.138;6.950;2023-11-19T06:32:34;18.55;;;3.25;;
83715;SDS011;73698;51.138;6.950;2023-11-19T06:34:59;10.35;;;2.50;;
83715;SDS011;73698;51.138;6.950;2023-11-19T06:37:24;18.58;;;3.60;;
83715;SDS011;73698;51.138;6.950;2023-11-19T06:39:50;16.60;;;2.63;;
83715;SDS011;73698;51.138;6.950;2023-11-19T06:42:15;19.08;;;2.40;;
83715;SDS011;73698;51.138;6.950;2023-11-19T06:44:51;12.48;;;2.47;;
83715;SDS011;73698;51.138;6.950;2023-11-19T06:47:27;11.65;;;2.58;;
83715;SDS011;73698;51.138;6.950;2023-11-19T06:49:53;20.33;;;2.80;;
83715;SDS011;73698;51.138;6.950;2023-11-19T06:52:19;19.20;;;2.58;;
83715;SDS011;73698;51.138;6.950;2023-11-19T06:54:45;19.58;;;3.13;;
83715;SDS011;73698;51.138;6.950;2023-11-19T06:57:11;12.30;;;3.33;;
83715;SDS011;73698;51.138;6.950;2023-11-19T06:59:36;13.43;;;2.97;;
83715;SDS011;73698;51.138;6.950;2023-11-19T07:02:02;14.05;;;2.10;;
83715;SDS011;73698;51.138;6.950;2023-11-19T07:04:28;12.70;;;2.35;;
83715;SDS011;73698;51.138;6.950;2023-11-19T07:06:53;18.33;;;2.58;;
83715;SDS011;73698;51.138;6.950;2023-11-19T07:09:18;27.05;;;3.60;;
83715;SDS011;73698;51.138;6.950;2023-11-19T07:11:44;16.50;;;2.58;;
83715;SDS011;73698;51.138;6.950;2023-11-19T07:14:11;18.00;;;2.92;;
83715;SDS011;73698;51.138;6.950;2023-11-19T07:16:37;15.80;;;3.45;;
83715;SDS011;73698;51.138;6.950;2023-11-19T07:19:04;13.35;;;2.72;;
83715;SDS011;73698;51.138;6.950;2023-11-19T07:21:30;18.77;;;2.88;;
83715;SDS011;73698;51.138;6.950;2023-11-19T07:23:56;16.98;;;2.63;;
83715;SDS011;73698;51.138;6.950;2023-11-19T07:26:22;18.67;;;3.17;;
83715;SDS011;73698;51.138;6.950;2023-11-19T07:28:48;19.00;;;5.05;;
83715;SDS011;73698;51.138;6.950;2023-11-19T07:31:14;20.42;;;3.30;;
83715;SDS011;73698;51.138;6.950;2023-11-19T07:33:40;22.40;;;2.67;;
83715;SDS011;73698;51.138;6.950;2023-11-19T07:36:09;16.67;;;3.67;;
83715;SDS011;73698;51.138;6.950;2023-11-19T07:38:36;21.08;;;3.47;;
83715;SDS011;73698;51.138;6.950;2023-11-19T07:41:01;15.10;;;2.47;;
83715;SDS011;73698;51.138;6.950;2023-11-19T07:43:27;15.30;;;2.80;;
83715;SDS011;73698;51.138;6.950;2023-11-19T07:45:52;15.00;;;3.63;;
83715;SDS011;73698;51.138;6.950;2023-11-19T07:48:18;13.23;;;3.22;;
83715;SDS011;73698;51.138;6.950;2023-11-19T07:50:48;20.40;;;3.83;;
83715;SDS011;73698;51.138;6.950;2023-11-19T07:53:17;22.75;;;3.13;;
83715;SDS011;73698;51.138;6.950;2023-11-19T07:55:42;18.35;;;3.30;;
83715;SDS011;73698;51.138;6.950;2023-11-19T07:58:09;16.92;;;2.95;;
83715;SDS011;73698;51.138;6.950;2023-11-19T08:00:35;18.35;;;2.30;;
83715;SDS011;73698;51.138;6.950;2023-11-19T08:03:01;14.68;;;2.35;;
83715;SDS011;73698;51.138;6.950;2023-11-19T08:05:26;18.02;;;3.38;;
83715;SDS011;73698;51.138;6.950;2023-11-19T08:07:52;13.95;;;2.75;;
83715;SDS011;73698;51.138;6.950;2023-11-19T08:10:18;28.13;;;3.10;;
83715;SDS011;73698;51.138;6.950;2023-11-19T08:12:44;21.17;;;2.92;;
83715;SDS011;73698;51.138;6.950;2023-11-19T08:15:09;13.55;;;3.05;;
83715;SDS011;73698;51.138;6.950;2023-11-19T08:17:36;22.45;;;3.53;;
83715;SDS011;73698;51.138;6.950;2023-11-19T08:20:05;17.45;;;2.75;;
83715;SDS011;73698;51.138;6.950;2023-11-19T08:22:35;27.55;;;3.70;;
83715;SDS011;73698;51.138;6.950;2023-11-19T08:25:00;22.33;;;3.90;;
83715;SDS011;73698;51.138;6.950;2023-11-19T08:27:25;26.65;;;3.80;;
83715;SDS011;73698;51.138;6.950;2023-11-19T08:29:54;21.77;;;3.72;;
83715;SDS011;73698;51.138;6.950;2023-11-19T08:34:49;17.08;;;3.80;;
83715;SDS011;73698;51.138;6.950;2023-11-19T08:37:15;13.65;;;2.35;;
83715;SDS011;73698;51.138;6.950;2023-11-19T08:39:43;17.17;;;3.35;;
83715;SDS011;73698;51.138;6.950;2023-11-19T08:42:08;18.00;;;4.05;;
83715;SDS011;73698;51.138;6.950;2023-11-19T08:44:33;12.85;;;2.25;;
83715;SDS011;73698;51.138;6.950;2023-11-19T08:46:59;11.50;;;2.47;;
83715;SDS011;73698;51.138;6.950;2023-11-19T08:49:24;18.40;;;3.97;;
83715;SDS011;73698;51.138;6.950;2023-11-19T08:51:50;15.00;;;3.70;;
83715;SDS011;73698;51.138;6.950;2023-11-19T08:54:16;15.50;;;2.95;;
83715;SDS011;73698;51.138;6.950;2023-11-19T08:56:41;19.75;;;2.70;;
83715;SDS011;73698;51.138;6.950;2023-11-19T08:59:07;11.85;;;2.17;;
83715;SDS011;73698;51.138;6.950;2023-11-19T09:01:33;15.82;;;2.63;;
83715;SDS011;73698;51.138;6.950;2023-11-19T09:03:59;18.15;;;2.95;;
83715;SDS011;73698;51.138;6.950;2023-11-19T09:06:24;15.40;;;2.83;;
83715;SDS011;73698;51.138;6.950;2023-11-19T09:08:50;11.80;;;3.08;;
83715;SDS011;73698;51.138;6.950;2023-11-19T09:11:15;16.15;;;3.22;;
83715;SDS011;73698;51.138;6.950;2023-11-19T09:13:41;21.52;;;3.70;;
83715;SDS011;73698;51.138;6.950;2023-11-19T09:16:07;13.18;;;2.33;;
83715;SDS011;73698;51.138;6.950;2023-11-19T09:18:34;20.38;;;3.60;;
83715;SDS011;73698;51.138;6.950;2023-11-19T09:21:00;20.45;;;2.78;;
83715;SDS011;73698;51.138;6.950;2023-11-19T09:23:25;16.95;;;3.60;;
83715;SDS011;73698;51.138;6.950;2023-11-19T09:25:52;13.25;;;2.65;;
83715;SDS011;73698;51.138;6.950;2023-11-19T09:28:18;17.88;;;2.70;;
83715;SDS011;73698;51.138;6.950;2023-11-19T09:30:43;15.85;;;3.00;;
83715;SDS011;73698;51.138;6.950;2023-11-19T09:33:09;11.95;;;2.95;;
83715;SDS011;73698;51.138;6.950;2023-11-19T09:35:34;29.60;;;3.55;;
83715;SDS011;73698;51.138;6.950;2023-11-19T09:38:00;22.73;;;4.28;;
83715;SDS011;73698;51.138;6.950;2023-11-19T09:40:25;16.15;;;4.57;;
83715;SDS011;73698;51.138;6.950;2023-11-19T09:42:51;15.48;;;2.65;;
83715;SDS011;73698;51.138;6.950;2023-11-19T09:45:18;16.77;;;2.35;;
83715;SDS011;73698;51.138;6.950;2023-11-19T09:47:46;16.70;;;3.05;;
83715;SDS011;73698;51.138;6.950;2023-11-19T09:50:14;11.88;;;3.30;;
83715;SDS011;73698;51.138;6.950;2023-11-19T09:52:42;20.70;;;2.80;;
83715;SDS011;73698;51.138;6.950;2023-11-19T09:55:08;12.77;;;2.45;;
83715;SDS011;73698;51.138;6.950;2023-11-19T09:57:34;17.05;;;3.38;;
83715;SDS011;73698;51.138;6.950;2023-11-19T10:00:03;17.73;;;3.05;;
83715;SDS011;73698;51.138;6.950;2023-11-19T10:02:33;20.25;;;2.80;;
83715;SDS011;73698;51.138;6.950;2023-11-19T10:05:04;28.20;;;3.20;;
83715;SDS011;73698;51.138;6.950;2023-11-19T10:07:32;17.67;;;3.40;;
83715;SDS011;73698;51.138;6.950;2023-11-19T10:10:04;25.75;;;3.80;;
83715;SDS011;73698;51.138;6.950;2023-11-19T10:12:30;22.63;;;3.35;;
83715;SDS011;73698;51.138;6.950;2023-11-19T10:14:56;17.17;;;2.80;;
83715;SDS011;73698;51.138;6.950;2023-11-19T10:17:32;17.40;;;3.38;;
83715;SDS011;73698;51.138;6.950;2023-11-19T10:19:58;13.40;;;2.67;;
83715;SDS011;73698;51.138;6.950;2023-11-19T10:22:24;13.25;;;3.30;;
83715;SDS011;73698;51.138;6.950;2023-11-19T10:24:50;16.52;;;2.50;;
83715;SDS011;73698;51.138;6.950;2023-11-19T10:27:15;18.25;;;3.90;;
83715;SDS011;73698;51.138;6.950;2023-11-19T10:29:43;17.55;;;3.10;;
83715;SDS011;73698;51.138;6.950;2023-11-19T10:32:12;15.35;;;2.75;;
83715;SDS011;73698;51.138;6.950;2023-11-19T10:34:40;18.08;;;3.30;;
83715;SDS011;73698;51.138;6.950;2023-11-19T10:37:06;17.63;;;3.28;;
83715;SDS011;73698;51.138;6.950;2023-11-19T10:39:51;18.90;;;2.88;;
83715;SDS011;73698;51.138;6.950;2023-11-19T10:42:20;17.73;;;2.28;;
83715;SDS011;73698;51.138;6.950;2023-11-19T10:44:46;14.60;;;2.38;;
83715;SDS011;73698;51.138;6.950;2023-11-19T10:47:13;19.95;;;3.08;;
83715;SDS011;73698;51.138;6.950;2023-11-19T10:49:40;9.77;;;2.10;;
83715;SDS011;73698;51.138;6.950;2023-11-19T10:52:06;19.15;;;3.33;;
83715;SDS011;73698;51.138;6.950;2023-11-19T10:54:34;21.50;;;4.35;;
83715;SDS011;73698;51.138;6.950;2023-11-19T10:56:59;21.98;;;2.97;;
83715;SDS011;73698;51.138;6.950;2023-11-19T10:59:30;14.80;;;2.53;;
83715;SDS011;73698;51.138;6.950;2023-11-19T11:04:46;17.50;;;2.92;;
83715;SDS011;73698;51.138;6.950;2023-11-19T11:07:12;14.05;;;2.50;;
83715;SDS011;73698;51.138;6.950;2023-11-19T11:09:41;15.40;;;2.58;;
83715;SDS011;73698;51.138;6.950;2023-11-19T11:12:07;13.93;;;2.33;;
83715;SDS011;73698;51.138;6.950;2023-11-19T11:14:36;18.33;;;3.20;;
83715;SDS011;73698;51.138;6.950;2023-11-19T11:17:05;16.07;;;3.10;;
83715;SDS011;73698;51.138;6.950;2023-11-19T11:22:23;13.40;;;1.90;;
83715;SDS011;73698;51.138;6.950;2023-11-19T11:32:41;15.48;;;3.00;;
83715;SDS011;73698;51.138;6.950;2023-11-19T11:38:08;12.85;;;2.38;;
83715;SDS011;73698;51.138;6.950;2023-11-19T11:40:34;14.43;;;3.75;;
83715;SDS011;73698;51.138;6.950;2023-11-19T11:43:01;19.70;;;2.40;;
83715;SDS011;73698;51.138;6.950;2023-11-19T11:45:37;11.32;;;2.60;;
83715;SDS011;73698;51.138;6.950;2023-11-19T11:48:11;17.20;;;2.90;;
83715;SDS011;73698;51.138;6.950;2023-11-19T11:50:47;18.67;;;3.17;;
83715;SDS011;73698;51.138;6.950;2023-11-19T11:53:17;11.43;;;2.70;;
83715;SDS011;73698;51.138;6.950;2023-11-19T11:58:13;11.15;;;2.65;;
83715;SDS011;73698;51.138;6.950;2023-11-19T12:00:40;8.65;;;2.13;;
83715;SDS011;73698;51.138;6.950;2023-11-19T12:03:07;13.95;;;2.28;;
83715;SDS011;73698;51.138;6.950;2023-11-19T12:05:34;9.98;;;2.28;;
83715;SDS011;73698;51.138;6.950;2023-11-19T12:08:04;10.32;;;3.22;;
83715;SDS011;73698;51.138;6.950;2023-11-19T12:10:32;14.25;;;2.17;;
83715;SDS011;73698;51.138;6.950;2023-11-19T12:13:03;17.17;;;3.50;;
83715;SDS011;73698;51.138;6.950;2023-11-19T12:41:59;12.88;;;2.88;;
83715;SDS011;73698;51.138;6.950;2023-11-19T12:45:45;17.48;;;3.00;;
83715;SDS011;73698;51.138;6.950;2023-11-19T12:54:54;22.15;;;3.85;;
83715;SDS011;73698;51.138;6.950;2023-11-19T13:04:20;14.90;;;3.63;;
83715;SDS011;73698;51.138;6.950;2023-11-19T13:34:05;13.98;;;2.70;;
83715;SDS011;73698;51.138;6.950;2023-11-19T13:36:40;10.55;;;2.33;;
83715;SDS011;73698;51.138;6.950;2023-11-19T13:39:05;14.63;;;2.42;;
83715;SDS011;73698;51.138;6.950;2023-11-19T13:41:32;12.88;;;2.17;;
83715;SDS011;73698;51.138;6.950;2023-11-19T13:44:00;13.50;;;3.08;;
83715;SDS011;73698;51.138;6.950;2023-11-19T13:46:28;18.33;;;3.10;;
83715;SDS011;73698;51.138;6.950;2023-11-19T13:49:14;7.95;;;2.63;;
83715;SDS011;73698;51.138;6.950;2023-11-19T13:54:44;18.75;;;4.03;;
83715;SDS011;73698;51.138;6.950;2023-11-19T14:00:40;14.00;;;4.30;;
83715;SDS011;73698;51.138;6.950;2023-11-19T14:03:09;10.48;;;3.13;;
83715;SDS011;73698;51.138;6.950;2023-11-19T14:05:38;15.15;;;2.63;;
83715;SDS011;73698;51.138;6.950;2023-11-19T14:08:06;14.48;;;3.22;;
83715;SDS011;73698;51.138;6.950;2023-11-19T14:10:38;10.52;;;2.80;;
83715;SDS011;73698;51.138;6.950;2023-11-19T14:44:13;15.85;;;2.10;;
83715;SDS011;73698;51.138;6.950;2023-11-19T14:46:39;15.55;;;3.17;;
83715;SDS011;73698;51.138;6.950;2023-11-19T14:49:04;9.63;;;2.35;;
83715;SDS011;73698;51.138;6.950;2023-11-19T14:55:31;16.92;;;2.97;;
83715;SDS011;73698;51.138;6.950;2023-11-19T14:58:36;16.35;;;2.58;;
83715;SDS011;73698;51.138;6.950;2023-11-19T15:04:40;12.75;;;1.73;;
83715;SDS011;73698;51.138;6.950;2023-11-19T15:07:07;16.55;;;2.67;;
83715;SDS011;73698;51.138;6.950;2023-11-19T15:09:50;15.57;;;2.92;;
83715;SDS011;73698;51.138;6.950;2023-11-19T15:12:55;12.10;;;2.45;;
83715;SDS011;73698;51.138;6.950;2023-11-19T15:16:23;11.15;;;1.75;;
83715;SDS011;73698;51.138;6.950;2023-11-19T15:22:59;12.52;;;2.90;;
83715;SDS011;73698;51.138;6.950;2023-11-19T15:26:41;16.67;;;1.98;;
83715;SDS011;73698;51.138;6.950;2023-11-19T15:35:26;16.87;;;2.67;;
83715;SDS011;73698;51.138;6.950;2023-11-19T15:38:13;13.68;;;2.47;;
83715;SDS011;73698;51.138;6.950;2023-11-19T15:41:05;11.57;;;2.08;;
83715;SDS011;73698;51.138;6.950;2023-11-19T15:47:05;10.00;;;2.42;;
83715;SDS011;73698;51.138;6.950;2023-11-19T15:49:47;17.20;;;2.88;;
83715;SDS011;73698;51.138;6.950;2023-11-19T15:52:32;12.73;;;2.35;;
83715;SDS011;73698;51.138;6.950;2023-11-19T15:58:34;18.55;;;2.58;;
83715;SDS011;73698;51.138;6.950;2023-11-19T16:01:17;13.27;;;2.65;;
83715;SDS011;73698;51.138;6.950;2023-11-19T16:03:53;11.43;;;2.88;;
83715;SDS011;73698;51.138;6.950;2023-11-19T16:06:18;7.45;;;2.13;;
83715;SDS011;73698;51.138;6.950;2023-11-19T16:08:44;19.80;;;2.38;;
83715;SDS011;73698;51.138;6.950;2023-11-19T16:11:09;15.52;;;2.60;;
83715;SDS011;73698;51.138;6.950;2023-11-19T16:13:35;11.55;;;2.25;;
83715;SDS011;73698;51.138;6.950;2023-11-19T16:16:01;11.57;;;2.22;;
83715;SDS011;73698;51.138;6.950;2023-11-19T16:18:26;18.20;;;2.35;;
83715;SDS011;73698;51.138;6.950;2023-11-19T16:20:53;14.32;;;3.15;;
83715;SDS011;73698;51.138;6.950;2023-11-19T16:23:20;16.75;;;3.38;;
83715;SDS011;73698;51.138;6.950;2023-11-19T16:25:45;16.67;;;2.38;;
83715;SDS011;73698;51.138;6.950;2023-11-19T16:28:10;10.27;;;2.30;;
83715;SDS011;73698;51.138;6.950;2023-11-19T16:30:36;12.55;;;1.92;;
83715;SDS011;73698;51.138;6.950;2023-11-19T16:33:01;11.43;;;2.05;;
83715;SDS011;73698;51.138;6.950;2023-11-19T16:35:28;17.30;;;3.35;;
83715;SDS011;73698;51.138;6.950;2023-11-19T16:37:53;16.90;;;2.42;;
83715;SDS011;73698;51.138;6.950;2023-11-19T16:40:19;15.63;;;2.33;;
83715;SDS011;73698;51.138;6.950;2023-11-19T16:42:44;14.02;;;2.78;;
83715;SDS011;73698;51.138;6.950;2023-11-19T16:45:14;10.75;;;2.25;;
83715;SDS011;73698;51.138;6.950;2023-11-19T16:47:40;16.73;;;3.78;;
83715;SDS011;73698;51.138;6.950;2023-11-19T16:50:06;14.50;;;2.78;;
83715;SDS011;73698;51.138;6.950;2023-11-19T16:52:33;15.30;;;3.03;;
83715;SDS011;73698;51.138;6.950;2023-11-19T16:54:58;21.05;;;3.83;;
83715;SDS011;73698;51.138;6.950;2023-11-19T16:57:25;12.70;;;2.92;;
83715;SDS011;73698;51.138;6.950;2023-11-19T16:59:52;16.90;;;2.50;;
83715;SDS011;73698;51.138;6.950;2023-11-19T17:02:21;12.85;;;2.17;;
83715;SDS011;73698;51.138;6.950;2023-11-19T17:04:48;9.75;;;1.85;;
83715;SDS011;73698;51.138;6.950;2023-11-19T17:07:14;13.90;;;2.95;;
83715;SDS011;73698;51.138;6.950;2023-11-19T17:09:39;15.52;;;3.20;;
83715;SDS011;73698;51.138;6.950;2023-11-19T17:12:06;14.18;;;3.15;;
83715;SDS011;73698;51.138;6.950;2023-11-19T17:14:32;20.27;;;3.30;;
83715;SDS011;73698;51.138;6.950;2023-11-19T17:16:59;10.55;;;2.40;;
83715;SDS011;73698;51.138;6.950;2023-11-19T17:19:25;12.13;;;2.47;;
83715;SDS011;73698;51.138;6.950;2023-11-19T17:21:51;13.98;;;2.28;;
83715;SDS011;73698;51.138;6.950;2023-11-19T17:24:16;14.63;;;2.65;;
83715;SDS011;73698;51.138;6.950;2023-11-19T17:26:42;17.17;;;2.40;;
83715;SDS011;73698;51.138;6.950;2023-11-19T17:29:08;17.38;;;2.70;;
83715;SDS011;73698;51.138;6.950;2023-11-19T17:31:35;12.20;;;2.30;;